createdAt,value
2022-08-20T00:00:36.995Z,27.89
2022-08-20T00:01:38.992Z,27.55
2022-08-20T00:02:46.908Z,27.95
2022-08-20T00:03:50.270Z,27.46
2022-08-20T00:04:55.450Z,27.57
2022-08-20T00:06:09.235Z,27.96
2022-08-20T00:07:11.328Z,27.68
2022-08-20T00:08:13.847Z,27.61
2022-08-20T00:09:15.905Z,27.51
2022-08-20T00:10:18.400Z,27.21
2022-08-20T00:11:25.666Z,27.92
2022-08-20T00:12:27.754Z,27.65
2022-08-20T00:13:33.925Z,27.92
2022-08-20T00:14:36.880Z,27.71
2022-08-20T00:15:39.163Z,27.76
2022-08-20T00:16:40.997Z,27.12
2022-08-20T00:17:43.213Z,27.43
2022-08-20T00:18:45.490Z,27.81
2022-08-20T00:19:47.360Z,27.60
2022-08-20T00:20:53.053Z,27.87
2022-08-20T00:21:58.080Z,27.57
2022-08-20T00:23:01.924Z,27.09
2022-08-20T00:24:05.308Z,27.58
2022-08-20T00:25:08.542Z,27.88
2022-08-20T00:26:11.258Z,27.34
2022-08-20T00:27:13.056Z,27.09
2022-08-20T00:28:15.929Z,27.43
2022-08-20T00:29:17.801Z,27.41
2022-08-20T00:30:23.240Z,27.84
2022-08-20T00:31:25.428Z,27.40
2022-08-20T00:32:27.271Z,27.43
2022-08-20T00:33:29.147Z,27.42
2022-08-20T00:34:30.949Z,26.88
2022-08-20T00:35:35.745Z,27.18
2022-08-20T00:36:38.167Z,27.83
2022-08-20T00:37:41.936Z,27.64
2022-08-20T00:38:46.765Z,26.97
2022-08-20T00:39:48.708Z,26.92
2022-08-20T00:40:54.565Z,27.81
2022-08-20T00:41:56.520Z,27.50
2022-08-20T00:43:01.074Z,26.98
2022-08-20T00:44:11.475Z,27.80
2022-08-20T00:45:13.934Z,27.32
2022-08-20T00:46:22.368Z,27.82
2022-08-20T00:47:33.165Z,27.29
2022-08-20T00:48:38.103Z,27.81
2022-08-20T00:49:41.281Z,27.68
2022-08-20T00:50:43.443Z,27.47
2022-08-20T00:51:57.739Z,27.79
2022-08-20T00:53:02.848Z,27.79
2022-08-20T00:54:14.080Z,27.80
2022-08-20T00:55:19.900Z,27.80
2022-08-20T00:56:22.362Z,27.43
2022-08-20T00:57:46.099Z,27.78
2022-08-20T00:59:00.966Z,27.86
2022-08-20T01:00:10.552Z,27.30
2022-08-20T01:01:13.593Z,27.45
2022-08-20T01:02:17.804Z,27.24
2022-08-20T01:03:20.606Z,27.02
2022-08-20T01:04:22.532Z,27.76
2022-08-20T01:05:28.644Z,27.22
2022-08-20T01:06:32.320Z,27.77
2022-08-20T01:07:35.104Z,27.42
2022-08-20T01:08:38.031Z,27.46
2022-08-20T01:09:57.674Z,27.75
2022-08-20T01:11:26.622Z,27.49
2022-08-20T01:12:30.157Z,27.50
2022-08-20T01:13:32.284Z,27.39
2022-08-20T01:14:34.181Z,27.31
2022-08-20T01:15:43.035Z,27.56
2022-08-20T01:16:46.379Z,27.39
2022-08-20T01:17:52.899Z,27.72
2022-08-20T01:18:58.961Z,27.73
2022-08-20T01:20:17.872Z,27.47
2022-08-20T01:21:28.575Z,27.76
2022-08-20T01:22:57.558Z,27.32
2022-08-20T01:24:12.702Z,27.46
2022-08-20T01:25:27.047Z,27.79
2022-08-20T01:26:38.147Z,27.50
2022-08-20T01:27:42.548Z,27.57
2022-08-20T01:28:50.730Z,27.17
2022-08-20T01:29:52.976Z,27.32
2022-08-20T01:30:55.359Z,27.43
2022-08-20T01:32:01.606Z,27.37
2022-08-20T01:33:05.053Z,27.51
2022-08-20T01:34:10.894Z,27.67
2022-08-20T01:35:13.003Z,27.13
2022-08-20T01:36:17.566Z,27.66
2022-08-20T01:37:19.380Z,27.28
2022-08-20T01:38:21.627Z,26.76
2022-08-20T01:39:28.172Z,27.27
2022-08-20T01:41:18.045Z,27.35
2022-08-20T01:42:57.604Z,27.37
2022-08-20T01:44:01.576Z,27.75
2022-08-20T01:45:05.428Z,27.41
2022-08-20T01:46:09.039Z,27.71
2022-08-20T01:47:29.353Z,27.09
2022-08-20T01:48:31.259Z,27.62
2022-08-20T01:49:35.369Z,27.35
2022-08-20T01:50:40.396Z,27.21
2022-08-20T01:51:42.704Z,27.31
2022-08-20T01:52:55.803Z,27.23
2022-08-20T01:54:01.799Z,27.65
2022-08-20T01:55:05.105Z,27.33
2022-08-20T01:56:10.989Z,27.18
2022-08-20T01:57:16.126Z,27.63
2022-08-20T01:58:18.035Z,27.23
2022-08-20T01:59:20.285Z,27.30
2022-08-20T02:00:23.324Z,27.32
2022-08-20T02:01:46.453Z,27.62
2022-08-20T02:02:49.554Z,27.24
2022-08-20T02:03:54.075Z,27.34
2022-08-20T02:04:57.314Z,27.23
2022-08-20T02:06:03.358Z,27.16
2022-08-20T02:07:07.332Z,27.31
2022-08-20T02:08:09.205Z,26.70
2022-08-20T02:09:16.046Z,27.60
2022-08-20T02:10:18.800Z,27.22
2022-08-20T02:11:21.287Z,27.24
2022-08-20T02:12:23.122Z,27.27
2022-08-20T02:13:25.213Z,27.26
2022-08-20T02:14:27.933Z,27.27
2022-08-20T02:15:34.894Z,27.13
2022-08-20T02:16:43.329Z,27.59
2022-08-20T02:17:54.467Z,27.34
2022-08-20T02:19:00.143Z,27.19
2022-08-20T02:20:07.694Z,26.77
2022-08-20T02:21:09.732Z,27.39
2022-08-20T02:22:16.362Z,26.76
2022-08-20T02:23:18.867Z,27.04
2022-08-20T02:24:21.614Z,27.33
2022-08-20T02:25:26.488Z,27.05
2022-08-20T02:26:29.472Z,27.12
2022-08-20T02:27:32.254Z,26.80
2022-08-20T02:28:36.755Z,27.45
2022-08-20T02:29:38.940Z,27.24
2022-08-20T02:30:45.275Z,26.99
2022-08-20T02:32:24.491Z,26.65
2022-08-20T02:33:12.252Z,26.76
2022-08-20T02:34:22.799Z,27.59
2022-08-20T02:35:25.199Z,27.61
2022-08-20T02:36:27.635Z,27.14
2022-08-20T02:37:29.730Z,27.26
2022-08-20T02:38:34.916Z,27.45
2022-08-20T02:39:36.771Z,27.09
2022-08-20T02:40:40.383Z,27.54
2022-08-20T02:41:42.362Z,26.62
2022-08-20T02:42:44.494Z,26.97
2022-08-20T02:43:46.313Z,27.06
2022-08-20T02:44:48.143Z,27.33
2022-08-20T02:45:50.107Z,27.14
2022-08-20T02:46:52.010Z,26.73
2022-08-20T02:47:55.790Z,27.20
2022-08-20T02:48:58.193Z,27.23
2022-08-20T02:50:00.160Z,27.52
2022-08-20T02:51:05.261Z,27.51
2022-08-20T02:52:07.212Z,26.56
2022-08-20T02:53:08.982Z,27.24
2022-08-20T02:54:11.869Z,27.37
2022-08-20T02:55:25.340Z,27.51
2022-08-20T02:56:30.397Z,27.56
2022-08-20T02:57:33.299Z,27.22
2022-08-20T02:58:36.034Z,27.52
2022-08-20T02:59:38.948Z,27.52
2022-08-20T03:00:41.202Z,27.09
2022-08-20T03:01:43.070Z,27.07
2022-08-20T03:02:45.897Z,26.66
2022-08-20T03:03:47.671Z,27.05
2022-08-20T03:04:49.632Z,27.05
2022-08-20T03:05:54.018Z,26.85
2022-08-20T03:06:56.453Z,26.78
2022-08-20T03:07:58.471Z,27.34
2022-08-20T03:09:00.990Z,26.98
2022-08-20T03:10:03.035Z,27.36
2022-08-20T03:11:05.958Z,27.50
2022-08-20T03:12:08.777Z,27.49
2022-08-20T03:13:12.591Z,26.72
2022-08-20T03:14:14.468Z,27.09
2022-08-20T03:15:17.401Z,27.19
2022-08-20T03:16:20.199Z,27.13
2022-08-20T03:17:22.032Z,26.80
2022-08-20T03:18:26.244Z,27.32
2022-08-20T03:19:28.090Z,27.07
2022-08-20T03:20:31.507Z,27.47
2022-08-20T03:21:34.268Z,26.59
2022-08-20T03:22:36.292Z,27.18
2022-08-20T03:23:40.433Z,27.48
2022-08-20T03:24:42.483Z,27.06
2022-08-20T03:25:44.547Z,26.99
2022-08-20T03:26:46.677Z,27.14
2022-08-20T03:27:54.400Z,26.67
2022-08-20T03:28:56.698Z,27.13
2022-08-20T03:29:58.739Z,26.75
2022-08-20T03:31:01.578Z,26.89
2022-08-20T03:32:07.557Z,27.01
2022-08-20T03:33:10.386Z,27.29
2022-08-20T03:34:12.213Z,26.73
2022-08-20T03:35:16.852Z,27.48
2022-08-20T03:36:20.750Z,27.24
2022-08-20T03:37:34.589Z,27.21
2022-08-20T03:38:36.539Z,27.32
2022-08-20T03:39:39.134Z,27.00
2022-08-20T03:40:41.346Z,27.19
2022-08-20T03:41:43.175Z,27.11
2022-08-20T03:42:45.440Z,27.32
2022-08-20T03:43:47.245Z,27.25
2022-08-20T03:44:59.093Z,27.23
2022-08-20T03:46:01.255Z,27.48
2022-08-20T03:47:07.621Z,27.27
2022-08-20T03:48:12.271Z,27.30
2022-08-20T03:49:14.215Z,27.10
2022-08-20T03:50:23.113Z,27.47
2022-08-20T03:51:25.558Z,27.34
2022-08-20T03:52:29.390Z,27.19
2022-08-20T03:53:31.893Z,27.25
2022-08-20T03:54:34.117Z,27.32
2022-08-20T03:55:36.350Z,27.01
2022-08-20T03:56:38.244Z,27.07
2022-08-20T03:57:48.261Z,27.21
2022-08-20T03:58:50.081Z,27.29
2022-08-20T03:59:54.901Z,27.06
2022-08-20T04:01:01.171Z,27.48
2022-08-20T04:02:03.154Z,26.62
2022-08-20T04:03:06.606Z,27.23
2022-08-20T04:04:12.258Z,26.85
2022-08-20T04:05:14.896Z,27.48
2022-08-20T04:06:18.505Z,27.38
2022-08-20T04:07:25.683Z,27.23
2022-08-20T04:08:32.407Z,27.46
2022-08-20T04:09:34.265Z,27.38
2022-08-20T04:10:36.878Z,26.62
2022-08-20T04:11:39.360Z,27.32
2022-08-20T04:12:48.733Z,27.24
2022-08-20T04:13:55.053Z,27.13
2022-08-20T04:14:57.120Z,27.23
2022-08-20T04:16:03.613Z,27.20
2022-08-20T04:17:08.120Z,27.34
2022-08-20T04:18:11.986Z,27.47
2022-08-20T04:19:14.539Z,27.28
2022-08-20T04:20:23.302Z,27.17
2022-08-20T04:21:25.325Z,26.73
2022-08-20T04:22:31.492Z,27.30
2022-08-20T04:23:33.360Z,27.32
2022-08-20T04:24:35.433Z,27.12
2022-08-20T04:25:42.479Z,27.31
2022-08-20T04:26:45.120Z,27.30
2022-08-20T04:27:46.956Z,27.26
2022-08-20T04:28:50.076Z,27.30
2022-08-20T04:29:51.958Z,26.82
2022-08-20T04:30:55.779Z,27.44
2022-08-20T04:31:57.550Z,27.21
2022-08-20T04:32:59.843Z,26.60
2022-08-20T04:34:03.894Z,26.59
2022-08-20T04:35:07.838Z,26.86
2022-08-20T04:36:10.045Z,27.45
2022-08-20T04:37:16.682Z,27.33
2022-08-20T04:38:21.292Z,27.46
2022-08-20T04:39:23.719Z,27.45
2022-08-20T04:40:44.440Z,27.43
2022-08-20T04:41:46.321Z,27.38
2022-08-20T04:42:48.112Z,27.05
2022-08-20T04:43:56.522Z,27.46
2022-08-20T04:44:58.590Z,27.37
2022-08-20T04:46:06.008Z,27.24
2022-08-20T04:47:08.119Z,26.81
2022-08-20T04:48:14.707Z,27.45
2022-08-20T04:49:17.094Z,27.46
2022-08-20T04:50:19.997Z,26.95
2022-08-20T04:51:23.243Z,27.43
2022-08-20T04:52:28.532Z,27.21
2022-08-20T04:53:30.426Z,27.29
2022-08-20T04:54:32.673Z,27.18
2022-08-20T04:55:35.688Z,26.67
2022-08-20T04:56:40.294Z,27.12
2022-08-20T04:57:42.381Z,27.08
2022-08-20T04:58:49.071Z,27.15
2022-08-20T04:59:52.707Z,27.20
2022-08-20T05:01:04.137Z,26.83
2022-08-20T05:02:06.147Z,27.35
2022-08-20T05:03:08.008Z,27.24
2022-08-20T05:04:09.851Z,27.15
2022-08-20T05:05:13.277Z,26.80
2022-08-20T05:06:16.377Z,26.53
2022-08-20T05:07:21.788Z,27.32
2022-08-20T05:08:25.740Z,26.85
2022-08-20T05:09:27.546Z,27.16
2022-08-20T05:10:30.077Z,27.32
2022-08-20T05:11:35.884Z,27.43
2022-08-20T05:12:43.831Z,27.42
2022-08-20T05:13:58.953Z,27.31
2022-08-20T05:15:01.016Z,27.27
2022-08-20T05:16:05.063Z,26.81
2022-08-20T05:17:07.027Z,26.71
2022-08-20T05:18:09.505Z,27.41
2022-08-20T05:19:13.066Z,27.41
2022-08-20T05:20:19.211Z,27.40
2022-08-20T05:21:21.472Z,27.20
2022-08-20T05:22:24.694Z,27.32
2022-08-20T05:23:35.488Z,27.22
2022-08-20T05:24:37.271Z,26.99
2022-08-20T05:25:40.415Z,27.42
2022-08-20T05:26:42.277Z,27.18
2022-08-20T05:27:47.743Z,27.07
2022-08-20T05:28:57.364Z,26.83
2022-08-20T05:30:05.707Z,26.65
2022-08-20T05:31:09.595Z,27.04
2022-08-20T05:32:12.599Z,27.03
2022-08-20T05:33:18.932Z,27.40
2022-08-20T05:34:20.703Z,27.28
2022-08-20T05:35:22.570Z,27.13
2022-08-20T05:36:24.525Z,27.22
2022-08-20T05:37:26.489Z,27.19
2022-08-20T05:38:29.171Z,27.14
2022-08-20T05:39:35.417Z,27.11
2022-08-20T05:40:40.911Z,27.39
2022-08-20T05:41:42.741Z,27.41
2022-08-20T05:42:44.561Z,26.94
2022-08-20T05:43:46.478Z,27.18
2022-08-20T05:44:53.401Z,27.20
2022-08-20T05:45:58.541Z,27.16
2022-08-20T05:47:00.395Z,27.40
2022-08-20T05:48:11.583Z,27.21
2022-08-20T05:49:19.600Z,27.40
2022-08-20T05:50:23.390Z,27.12
2022-08-20T05:51:25.438Z,27.26
2022-08-20T05:52:27.252Z,27.05
2022-08-20T05:53:29.073Z,27.08
2022-08-20T05:54:31.325Z,26.98
2022-08-20T05:55:33.678Z,26.73
2022-08-20T05:56:36.077Z,27.06
2022-08-20T05:57:37.887Z,26.98
2022-08-20T05:58:40.209Z,26.81
2022-08-20T05:59:42.050Z,27.25
2022-08-20T06:00:43.846Z,27.38
2022-08-20T06:01:45.722Z,27.08
2022-08-20T06:03:06.216Z,27.11
2022-08-20T06:04:28.422Z,27.36
2022-08-20T06:05:30.397Z,27.16
2022-08-20T06:06:46.279Z,26.81
2022-08-20T06:07:50.785Z,26.94
2022-08-20T06:08:56.648Z,27.16
2022-08-20T06:10:00.296Z,27.00
2022-08-20T06:11:03.028Z,27.40
2022-08-20T06:12:07.862Z,27.40
2022-08-20T06:13:10.029Z,27.08
2022-08-20T06:14:16.778Z,27.28
2022-08-20T06:15:19.210Z,27.02
2022-08-20T06:16:21.183Z,26.57
2022-08-20T06:17:23.076Z,27.10
2022-08-20T06:18:28.650Z,27.50
2022-08-20T06:19:32.217Z,27.05
2022-08-20T06:20:38.674Z,27.56
2022-08-20T06:21:41.179Z,27.60
2022-08-20T06:22:43.347Z,27.57
2022-08-20T06:23:58.173Z,26.88
2022-08-20T06:25:01.878Z,27.58
2022-08-20T06:26:09.231Z,27.30
2022-08-20T06:27:14.888Z,27.45
2022-08-20T06:28:17.738Z,27.58
2022-08-20T06:29:19.976Z,27.64
2022-08-20T06:30:22.179Z,27.53
2022-08-20T06:31:24.480Z,27.63
2022-08-20T06:32:32.061Z,27.84
2022-08-20T06:33:34.692Z,27.72
2022-08-20T06:34:36.912Z,27.99
2022-08-20T06:35:38.718Z,27.74
2022-08-20T06:36:40.811Z,27.80
2022-08-20T06:37:43.237Z,28.05
2022-08-20T06:38:46.499Z,28.12
2022-08-20T06:39:48.381Z,28.09
2022-08-20T06:40:50.309Z,27.84
2022-08-20T06:41:52.183Z,27.37
2022-08-20T06:42:56.723Z,27.19
2022-08-20T06:43:58.622Z,27.75
2022-08-20T06:45:05.115Z,28.13
2022-08-20T06:46:07.119Z,27.99
2022-08-20T06:47:09.496Z,27.46
2022-08-20T06:48:15.227Z,28.33
2022-08-20T06:49:17.239Z,28.01
2022-08-20T06:50:26.865Z,28.04
2022-08-20T06:51:29.395Z,28.22
2022-08-20T06:52:52.916Z,28.12
2022-08-20T06:53:53.318Z,27.49
2022-08-20T06:54:55.114Z,27.59
2022-08-20T06:55:58.991Z,27.53
2022-08-20T06:57:02.030Z,28.50
2022-08-20T06:58:08.317Z,28.12
2022-08-20T06:59:30.465Z,28.37
2022-08-20T07:00:35.160Z,28.43
2022-08-20T07:01:37.103Z,28.44
2022-08-20T07:02:39.177Z,28.36
2022-08-20T07:03:55.424Z,28.33
2022-08-20T07:04:57.898Z,28.43
2022-08-20T07:05:59.751Z,28.45
2022-08-20T07:07:01.592Z,28.52
2022-08-20T07:08:04.931Z,28.37
2022-08-20T07:09:06.726Z,28.61
2022-08-20T07:10:10.838Z,27.40
2022-08-20T07:11:12.833Z,28.10
2022-08-20T07:12:14.726Z,28.44
2022-08-20T07:13:16.616Z,28.63
2022-08-20T07:14:19.364Z,28.46
2022-08-20T07:15:23.716Z,28.69
2022-08-20T07:16:26.268Z,28.52
2022-08-20T07:17:28.171Z,28.52
2022-08-20T07:18:30.011Z,28.01
2022-08-20T07:19:32.193Z,27.81
2022-08-20T07:20:36.870Z,28.61
2022-08-20T07:21:39.643Z,28.54
2022-08-20T07:22:42.342Z,28.54
2022-08-20T07:23:44.360Z,28.70
2022-08-20T07:24:49.154Z,28.58
2022-08-20T07:25:51.405Z,28.49
2022-08-20T07:26:53.253Z,28.43
2022-08-20T07:28:06.363Z,28.57
2022-08-20T07:29:08.229Z,28.13
2022-08-20T07:30:55.786Z,28.82
2022-08-20T07:32:16.566Z,28.81
2022-08-20T07:33:23.698Z,28.96
2022-08-20T07:34:25.476Z,28.74
2022-08-20T07:35:27.413Z,28.90
2022-08-20T07:36:29.640Z,28.09
2022-08-20T07:37:32.631Z,28.65
2022-08-20T07:38:35.389Z,28.88
2022-08-20T07:39:37.230Z,28.05
2022-08-20T07:40:43.432Z,28.64
2022-08-20T07:41:56.674Z,28.90
2022-08-20T07:43:01.065Z,28.66
2022-08-20T07:44:03.084Z,28.12
2022-08-20T07:45:10.911Z,28.50
2022-08-20T07:46:20.848Z,28.85
2022-08-20T07:47:23.490Z,28.91
2022-08-20T07:48:32.136Z,28.54
2022-08-20T07:49:38.500Z,28.73
2022-08-20T07:50:43.039Z,28.65
2022-08-20T07:51:44.916Z,28.87
2022-08-20T07:52:47.696Z,28.96
2022-08-20T07:53:51.749Z,28.78
2022-08-20T07:54:53.646Z,28.76
2022-08-20T07:55:59.253Z,28.76
2022-08-20T07:57:04.911Z,28.96
2022-08-20T07:58:10.341Z,28.73
2022-08-20T07:59:14.012Z,28.96
2022-08-20T08:00:17.621Z,28.77
2022-08-20T08:01:25.767Z,28.99
2022-08-20T08:02:28.308Z,28.97
2022-08-20T08:03:39.687Z,28.69
2022-08-20T08:04:51.347Z,28.93
2022-08-20T08:05:53.949Z,28.66
2022-08-20T08:06:59.963Z,28.79
2022-08-20T08:08:07.162Z,28.96
2022-08-20T08:09:13.419Z,28.74
2022-08-20T08:10:21.430Z,28.79
2022-08-20T08:11:23.437Z,28.85
2022-08-20T08:12:35.044Z,28.62
2022-08-20T08:13:40.226Z,28.80
2022-08-20T08:14:45.051Z,28.24
2022-08-20T08:15:49.923Z,28.83
2022-08-20T08:16:55.375Z,28.79
2022-08-20T08:18:02.233Z,28.81
2022-08-20T08:19:09.457Z,29.03
2022-08-20T08:20:15.198Z,28.85
2022-08-20T08:21:22.544Z,29.04
2022-08-20T08:22:24.832Z,28.69
2022-08-20T08:23:31.806Z,28.51
2022-08-20T08:24:34.721Z,29.04
2022-08-20T08:25:36.591Z,28.76
2022-08-20T08:26:38.597Z,28.93
2022-08-20T08:27:41.084Z,28.84
2022-08-20T08:28:44.590Z,28.83
2022-08-20T08:29:46.602Z,28.80
2022-08-20T08:30:49.501Z,28.60
2022-08-20T08:31:51.353Z,28.77
2022-08-20T08:33:11.384Z,28.78
2022-08-20T08:34:13.571Z,28.61
2022-08-20T08:35:16.512Z,28.59
2022-08-20T08:36:18.348Z,28.82
2022-08-20T08:37:20.360Z,28.88
2022-08-20T08:38:23.268Z,28.27
2022-08-20T08:39:25.624Z,28.14
2022-08-20T08:40:35.454Z,28.15
2022-08-20T08:41:49.594Z,28.07
2022-08-20T08:42:58.467Z,28.32
2022-08-20T08:44:14.662Z,28.30
2022-08-20T08:45:19.018Z,28.64
2022-08-20T08:46:26.033Z,28.12
2022-08-20T08:47:32.855Z,29.04
2022-08-20T08:48:45.640Z,28.84
2022-08-20T08:49:48.132Z,28.81
2022-08-20T08:50:53.106Z,28.63
2022-08-20T08:52:04.558Z,28.39
2022-08-20T08:53:08.618Z,28.77
2022-08-20T08:54:19.679Z,28.62
2022-08-20T08:55:23.227Z,28.31
2022-08-20T08:56:28.599Z,28.23
2022-08-20T08:57:31.824Z,28.77
2022-08-20T08:58:34.706Z,28.69
2022-08-20T08:59:58.140Z,28.47
2022-08-20T09:01:01.733Z,28.84
2022-08-20T09:02:07.303Z,28.33
2022-08-20T09:03:17.528Z,28.79
2022-08-20T09:04:22.067Z,28.94
2022-08-20T09:05:32.060Z,28.78
2022-08-20T09:06:34.040Z,28.78
2022-08-20T09:07:35.872Z,28.30
2022-08-20T09:09:01.150Z,28.84
2022-08-20T09:10:04.690Z,29.03
2022-08-20T09:11:08.428Z,29.01
2022-08-20T09:12:18.948Z,28.99
2022-08-20T09:13:20.937Z,28.88
2022-08-20T09:14:25.083Z,28.99
2022-08-20T09:15:27.331Z,28.82
2022-08-20T09:16:33.116Z,28.73
2022-08-20T09:17:51.163Z,29.04
2022-08-20T09:18:52.964Z,28.58
2022-08-20T09:19:54.804Z,28.72
2022-08-20T09:20:56.610Z,28.79
2022-08-20T09:21:58.420Z,28.79
2022-08-20T09:23:00.317Z,28.51
2022-08-20T09:24:02.264Z,28.83
2022-08-20T09:25:05.432Z,28.74
2022-08-20T09:26:07.414Z,28.72
2022-08-20T09:27:10.185Z,28.98
2022-08-20T09:28:12.070Z,28.50
2022-08-20T09:29:15.985Z,28.78
2022-08-20T09:30:19.035Z,28.71
2022-08-20T09:31:24.486Z,28.24
2022-08-20T09:32:26.569Z,28.87
2022-08-20T09:33:28.462Z,28.60
2022-08-20T09:34:30.289Z,28.72
2022-08-20T09:35:32.129Z,28.97
2022-08-20T09:36:33.996Z,28.73
2022-08-20T09:37:37.703Z,28.97
2022-08-20T09:38:39.784Z,28.40
2022-08-20T09:39:41.832Z,28.03
2022-08-20T09:40:44.613Z,28.12
2022-08-20T09:41:46.433Z,28.55
2022-08-20T09:42:49.131Z,28.68
2022-08-20T09:43:51.054Z,28.55
2022-08-20T09:44:53.243Z,28.97
2022-08-20T09:45:55.135Z,28.68
2022-08-20T09:46:56.946Z,28.70
2022-08-20T09:47:59.129Z,28.64
2022-08-20T09:49:02.032Z,28.81
2022-08-20T09:50:04.317Z,28.42
2022-08-20T09:51:06.381Z,28.58
2022-08-20T09:52:10.623Z,28.59
2022-08-20T09:53:13.551Z,28.84
2022-08-20T09:54:15.444Z,28.29
2022-08-20T09:55:23.104Z,28.96
2022-08-20T09:56:25.358Z,28.07
2022-08-20T09:57:28.385Z,28.97
2022-08-20T09:58:32.864Z,28.98
2022-08-20T09:59:35.934Z,28.23
2022-08-20T10:00:37.741Z,28.52
2022-08-20T10:01:39.773Z,28.56
2022-08-20T10:02:42.299Z,28.74
2022-08-20T10:03:51.108Z,28.97
2022-08-20T10:04:52.970Z,28.97
2022-08-20T10:05:54.705Z,28.92
2022-08-20T10:06:57.027Z,28.97
2022-08-20T10:07:59.000Z,28.97
2022-08-20T10:09:00.813Z,28.91
2022-08-20T10:10:03.082Z,28.95
2022-08-20T10:11:04.937Z,28.98
2022-08-20T10:12:07.210Z,28.90
2022-08-20T10:13:08.942Z,28.98
2022-08-20T10:14:15.015Z,28.99
2022-08-20T10:15:17.102Z,28.93
2022-08-20T10:16:18.875Z,28.96
2022-08-20T10:17:20.598Z,28.99
2022-08-20T10:18:22.478Z,28.94
2022-08-20T10:19:24.839Z,28.99
2022-08-20T10:20:26.827Z,28.94
2022-08-20T10:21:32.541Z,28.94
2022-08-20T10:22:36.503Z,29.02
2022-08-20T10:23:38.368Z,29.02
2022-08-20T10:24:40.139Z,29.03
2022-08-20T10:25:42.195Z,29.03
2022-08-20T10:26:44.642Z,29.03
2022-08-20T10:27:46.497Z,28.99
2022-08-20T10:28:48.321Z,28.94
2022-08-20T10:29:50.051Z,29.02
2022-08-20T10:30:51.837Z,29.04
2022-08-20T10:31:55.040Z,28.90
2022-08-20T10:32:56.793Z,29.00
2022-08-20T10:33:58.627Z,29.05
2022-08-20T10:35:00.727Z,29.06
2022-08-20T10:36:16.418Z,29.06
2022-08-20T10:37:22.041Z,29.08
2022-08-20T10:38:23.795Z,29.10
2022-08-20T10:39:25.703Z,29.09
2022-08-20T10:40:27.521Z,29.09
2022-08-20T10:41:29.382Z,29.04
2022-08-20T10:42:31.185Z,29.07
2022-08-20T10:43:33.096Z,29.10
2022-08-20T10:44:35.116Z,29.10
2022-08-20T10:45:36.963Z,29.05
2022-08-20T10:46:42.160Z,29.06
2022-08-20T10:47:44.395Z,29.05
2022-08-20T10:48:46.303Z,29.12
2022-08-20T10:49:52.937Z,29.12
2022-08-20T10:50:54.799Z,29.07
2022-08-20T10:51:56.603Z,29.13
2022-08-20T10:52:59.150Z,29.14
2022-08-20T10:54:01.054Z,29.14
2022-08-20T10:55:04.892Z,29.14
2022-08-20T10:56:07.095Z,29.16
2022-08-20T10:57:14.372Z,29.13
2022-08-20T10:58:16.127Z,29.17
2022-08-20T10:59:17.967Z,29.09
2022-08-20T11:00:19.916Z,29.18
2022-08-20T11:01:31.574Z,29.17
2022-08-20T11:02:36.219Z,29.22
2022-08-20T11:03:38.103Z,29.20
2022-08-20T11:04:41.139Z,29.20
2022-08-20T11:05:43.234Z,29.14
2022-08-20T11:06:45.144Z,29.20
2022-08-20T11:07:55.565Z,29.20
2022-08-20T11:08:58.192Z,29.21
2022-08-20T11:10:00.051Z,29.21
2022-08-20T11:11:02.083Z,29.14
2022-08-20T11:12:04.407Z,29.20
2022-08-20T11:13:08.344Z,29.20
2022-08-20T11:14:10.115Z,29.21
2022-08-20T11:15:12.079Z,29.21
2022-08-20T11:16:14.529Z,29.18
2022-08-20T11:17:25.154Z,29.21
2022-08-20T11:18:27.265Z,29.23
2022-08-20T11:19:29.575Z,29.22
2022-08-20T11:20:32.152Z,29.15
2022-08-20T11:21:33.919Z,29.16
2022-08-20T11:22:35.719Z,29.21
2022-08-20T11:23:37.462Z,29.21
2022-08-20T11:24:39.311Z,29.22
2022-08-20T11:25:41.151Z,29.23
2022-08-20T11:26:44.008Z,29.15
2022-08-20T11:27:48.864Z,29.17
2022-08-20T11:28:50.711Z,29.23
2022-08-20T11:29:53.363Z,29.22
2022-08-20T11:30:55.114Z,29.22
2022-08-20T11:31:56.918Z,29.17
2022-08-20T11:33:00.471Z,29.20
2022-08-20T11:34:02.463Z,29.22
2022-08-20T11:35:24.445Z,29.22
2022-08-20T11:36:26.624Z,29.27
2022-08-20T11:37:28.715Z,29.25
2022-08-20T11:38:30.442Z,29.25
2022-08-20T11:39:32.198Z,29.23
2022-08-20T11:40:33.943Z,29.22
2022-08-20T11:41:35.678Z,29.19
2022-08-20T11:42:53.240Z,29.22
2022-08-20T11:44:21.010Z,29.23
2022-08-20T11:45:22.028Z,29.29
2022-08-20T11:46:28.356Z,29.25
2022-08-20T11:47:32.703Z,29.17
2022-08-20T11:48:34.463Z,29.19
2022-08-20T11:49:37.758Z,29.21
2022-08-20T11:50:39.578Z,29.19
2022-08-20T11:51:49.838Z,29.16
2022-08-20T11:52:52.048Z,29.18
2022-08-20T11:53:53.802Z,29.21
2022-08-20T11:54:56.288Z,29.16
2022-08-20T11:55:59.565Z,29.18
2022-08-20T11:57:01.424Z,29.18
2022-08-20T11:58:03.194Z,29.19
2022-08-20T11:59:05.042Z,29.13
2022-08-20T12:00:12.632Z,29.14
2022-08-20T12:01:14.623Z,29.17
2022-08-20T12:02:16.655Z,29.18
2022-08-20T12:03:18.611Z,29.17
2022-08-20T12:04:20.844Z,29.10
2022-08-20T12:05:27.500Z,29.12
2022-08-20T12:06:29.277Z,29.16
2022-08-20T12:07:31.091Z,29.11
2022-08-20T12:08:32.871Z,29.15
2022-08-20T12:09:34.728Z,29.11
2022-08-20T12:10:38.758Z,29.14
2022-08-20T12:11:40.527Z,29.13
2022-08-20T12:12:42.583Z,29.12
2022-08-20T12:13:47.911Z,29.15
2022-08-20T12:14:55.690Z,29.14
2022-08-20T12:15:57.729Z,29.13
2022-08-20T12:17:08.503Z,29.14
2022-08-20T12:18:10.772Z,29.13
2022-08-20T12:19:12.531Z,29.14
2022-08-20T12:20:15.762Z,29.14
2022-08-20T12:21:17.642Z,29.09
2022-08-20T12:22:24.643Z,29.13
2022-08-20T12:23:27.410Z,29.09
2022-08-20T12:24:29.170Z,29.03
2022-08-20T12:25:32.791Z,29.12
2022-08-20T12:26:34.608Z,29.12
2022-08-20T12:27:38.022Z,29.07
2022-08-20T12:28:39.804Z,29.08
2022-08-20T12:29:43.267Z,29.06
2022-08-20T12:30:45.069Z,29.05
2022-08-20T12:31:46.839Z,28.99
2022-08-20T12:32:49.046Z,29.07
2022-08-20T12:33:50.807Z,29.09
2022-08-20T12:34:53.107Z,29.09
2022-08-20T12:35:54.943Z,29.10
2022-08-20T12:37:01.623Z,29.07
2022-08-20T12:38:04.999Z,29.04
2022-08-20T12:39:07.906Z,29.09
2022-08-20T12:40:14.907Z,29.09
2022-08-20T12:41:16.796Z,29.10
2022-08-20T12:42:19.143Z,29.09
2022-08-20T12:43:24.818Z,29.06
2022-08-20T12:44:27.009Z,29.08
2022-08-20T12:45:29.902Z,29.07
2022-08-20T12:46:31.645Z,29.07
2022-08-20T12:47:39.732Z,29.06
2022-08-20T12:48:41.481Z,29.08
2022-08-20T12:49:46.622Z,29.07
2022-08-20T12:50:50.300Z,29.06
2022-08-20T12:51:52.173Z,29.07
2022-08-20T12:52:54.078Z,29.07
2022-08-20T12:53:55.827Z,29.06
2022-08-20T12:54:58.829Z,29.05
2022-08-20T12:56:02.579Z,29.06
2022-08-20T12:57:05.061Z,29.06
2022-08-20T12:58:11.007Z,29.03
2022-08-20T12:59:12.767Z,29.03
2022-08-20T13:00:20.746Z,29.04
2022-08-20T13:01:23.116Z,29.03
2022-08-20T13:02:24.946Z,29.02
2022-08-20T13:03:26.799Z,29.01
2022-08-20T13:04:33.367Z,29.06
2022-08-20T13:05:36.399Z,29.05
2022-08-20T13:06:38.187Z,29.05
2022-08-20T13:07:40.946Z,29.00
2022-08-20T13:08:42.762Z,29.04
2022-08-20T13:09:44.717Z,29.03
2022-08-20T13:10:46.964Z,29.00
2022-08-20T13:11:49.339Z,29.03
2022-08-20T13:12:51.680Z,29.02
2022-08-20T13:13:53.547Z,29.03
2022-08-20T13:14:55.311Z,28.98
2022-08-20T13:15:57.131Z,29.04
2022-08-20T13:17:00.995Z,28.92
2022-08-20T13:18:05.038Z,29.03
2022-08-20T13:19:06.827Z,29.04
2022-08-20T13:20:12.862Z,29.03
2022-08-20T13:21:15.923Z,29.05
2022-08-20T13:22:17.887Z,29.05
2022-08-20T13:23:19.639Z,29.02
2022-08-20T13:24:22.251Z,29.04
2022-08-20T13:25:24.996Z,29.03
2022-08-20T13:26:27.824Z,29.05
2022-08-20T13:27:29.675Z,29.04
2022-08-20T13:28:31.777Z,29.04
2022-08-20T13:29:33.868Z,29.04
2022-08-20T13:30:38.791Z,29.03
2022-08-20T13:31:41.750Z,29.04
2022-08-20T13:32:44.314Z,29.05
2022-08-20T13:33:46.098Z,29.05
2022-08-20T13:34:48.046Z,29.05
2022-08-20T13:35:50.014Z,29.05
2022-08-20T13:36:51.959Z,28.99
2022-08-20T13:37:53.769Z,29.06
2022-08-20T13:38:55.574Z,29.06
2022-08-20T13:39:59.040Z,29.06
2022-08-20T13:41:00.892Z,29.06
2022-08-20T13:42:02.656Z,29.07
2022-08-20T13:43:07.071Z,29.00
2022-08-20T13:44:10.416Z,29.09
2022-08-20T13:45:12.586Z,29.09
2022-08-20T13:46:14.366Z,29.10
2022-08-20T13:47:22.453Z,29.09
2022-08-20T13:48:24.228Z,29.09
2022-08-20T13:49:26.074Z,29.11
2022-08-20T13:50:32.252Z,29.11